Impacts METAR Board
IDs:

KBAZ - New Braunfels Muni, TX, US

Updated at: 2300 UTC 29 May 2020
Potential Impact None Slight Moderate High
Time 29/11Z 29/12Z 29/13Z 29/14Z 29/15Z 29/16Z 29/17Z 29/18Z 29/19Z 29/20Z 29/21Z 29/22Z 29/23Z
Temp69 69 74 79 82 83 86 87 88 89 88 87 87
Dewpt65 65 67 67 67 67 67 64 62 63 60 59 61
Altim30.04 30.06 30.08 30.10 30.10 30.11 30.11 30.09 30.10 30.10 30.09 30.07 30.06
VIS10 10 10 10 10 10 10 10 10 10 10 10 10
CIG-- -- -- -- -- -- 47 -- -- -- -- -- --
CoverCLRCLRCLRCLRCLRCLRBKNFEWSCTCLRCLRCLRCLR
FltCatVFRVFRVFRVFRVFRVFRVFRVFRVFRVFRVFRVFRVFR
WX--------------------------
WDir34036020101040604036050605050
WSpd3 5 3 9 12 11 7 12 9 9 13 13 11
WGst-- -- -- -- -- -- -- 16 -- 15 22 20 --
Raw hourly METARs
KBAZ 291051Z AUTO 34003KT 10SM CLR 21/18 A3004 RMK AO2 SLP165 T02060183
KBAZ 291151Z 36005KT 10SM CLR 21/18 A3006 RMK AO2 SLP171 T02060183 10233 20206 53007
KBAZ 291251Z 02003KT 10SM CLR 23/19 A3008 RMK AO2 SLP179 T02330194
KBAZ 291351Z 01009KT 10SM CLR 26/19 A3010 RMK AO2 SLP183 T02610194
KBAZ 291451Z 01012KT 10SM CLR 28/19 A3010 RMK AO2 SLP182 T02780194 50013
KBAZ 291551Z 04011KT 10SM CLR 28/19 A3011 RMK AO2 SLP187 T02830194
KBAZ 291651Z 06007KT 10SM SCT036 BKN047 30/19 A3011 RMK AO2 SLP186 T03000194
KBAZ 291751Z 04012G16KT 10SM FEW040 FEW060 31/18 A3009 RMK AO2 SLP181 T03060178 10306 20206 58001
KBAZ 291851Z 36009KT 10SM SCT050 31/17 A3010 RMK AO2 SLP184 T03110167
KBAZ 291951Z 05009G15KT 10SM CLR 32/17 A3010 RMK AO2 SLP183 T03170172
KBAZ 292051Z 06013G22KT 10SM CLR 31/16 A3009 RMK AO2 SLP179 T03110156 58002
KBAZ 292151Z 05013G20KT 10SM CLR 31/15 A3007 RMK AO2 SLP173 T03060150
KBAZ 292251Z 05011KT 10SM CLR 31/16 A3006 RMK AO2 SLP170 T03060161